sensor_id;sensor_type;location;lat;lon;timestamp;temperature;humidity
7654;DHT22;3869;48.406;10.774;2023-06-19T00:00:19;19.60;94.70
7654;DHT22;3869;48.406;10.774;2023-06-19T00:02:47;19.60;94.70
7654;DHT22;3869;48.406;10.774;2023-06-19T00:05:15;19.60;94.50
7654;DHT22;3869;48.406;10.774;2023-06-19T00:07:43;19.60;94.90
7654;DHT22;3869;48.406;10.774;2023-06-19T00:10:11;19.60;95.10
7654;DHT22;3869;48.406;10.774;2023-06-19T00:12:39;19.70;95.10
7654;DHT22;3869;48.406;10.774;2023-06-19T00:15:10;19.60;94.90
7654;DHT22;3869;48.406;10.774;2023-06-19T00:17:38;19.60;94.70
7654;DHT22;3869;48.406;10.774;2023-06-19T00:20:07;19.50;94.80
7654;DHT22;3869;48.406;10.774;2023-06-19T00:22:36;19.50;95.10
7654;DHT22;3869;48.406;10.774;2023-06-19T00:25:04;19.60;95.50
7654;DHT22;3869;48.406;10.774;2023-06-19T00:27:32;19.60;95.50
7654;DHT22;3869;48.406;10.774;2023-06-19T00:30:00;19.60;95.20
7654;DHT22;3869;48.406;10.774;2023-06-19T00:32:31;19.60;95.10
7654;DHT22;3869;48.406;10.774;2023-06-19T00:35:14;19.50;95.10
7654;DHT22;3869;48.406;10.774;2023-06-19T00:37:42;19.50;95.30
7654;DHT22;3869;48.406;10.774;2023-06-19T00:40:24;19.50;95.30
7654;DHT22;3869;48.406;10.774;2023-06-19T00:42:54;19.50;95.70
7654;DHT22;3869;48.406;10.774;2023-06-19T00:45:22;19.50;95.30
7654;DHT22;3869;48.406;10.774;2023-06-19T00:47:53;19.40;95.30
7654;DHT22;3869;48.406;10.774;2023-06-19T00:50:22;19.40;95.40
7654;DHT22;3869;48.406;10.774;2023-06-19T00:52:51;19.30;95.40
7654;DHT22;3869;48.406;10.774;2023-06-19T00:55:19;19.30;95.50
7654;DHT22;3869;48.406;10.774;2023-06-19T00:57:49;19.30;95.50
7654;DHT22;3869;48.406;10.774;2023-06-19T01:00:19;19.30;95.50
7654;DHT22;3869;48.406;10.774;2023-06-19T01:02:47;19.20;95.40
7654;DHT22;3869;48.406;10.774;2023-06-19T01:05:18;19.20;95.50
7654;DHT22;3869;48.406;10.774;2023-06-19T01:07:52;19.20;95.50
7654;DHT22;3869;48.406;10.774;2023-06-19T01:10:24;19.10;95.50
7654;DHT22;3869;48.406;10.774;2023-06-19T01:12:58;19.10;95.60
7654;DHT22;3869;48.406;10.774;2023-06-19T01:15:27;19.10;95.50
7654;DHT22;3869;48.406;10.774;2023-06-19T01:17:57;19.10;95.50
7654;DHT22;3869;48.406;10.774;2023-06-19T01:20:28;19.00;95.60
7654;DHT22;3869;48.406;10.774;2023-06-19T01:23:06;19.00;95.90
7654;DHT22;3869;48.406;10.774;2023-06-19T01:25:34;19.10;96.10
7654;DHT22;3869;48.406;10.774;2023-06-19T01:28:03;19.10;96.20
7654;DHT22;3869;48.406;10.774;2023-06-19T01:30:33;19.10;96.00
7654;DHT22;3869;48.406;10.774;2023-06-19T01:33:06;19.00;95.90
7654;DHT22;3869;48.406;10.774;2023-06-19T01:35:39;19.00;96.00
7654;DHT22;3869;48.406;10.774;2023-06-19T01:38:09;19.00;96.00
7654;DHT22;3869;48.406;10.774;2023-06-19T01:40:39;19.00;95.90
7654;DHT22;3869;48.406;10.774;2023-06-19T01:43:08;18.90;95.90
7654;DHT22;3869;48.406;10.774;2023-06-19T01:45:37;18.90;95.80
7654;DHT22;3869;48.406;10.774;2023-06-19T01:48:05;18.90;95.90
7654;DHT22;3869;48.406;10.774;2023-06-19T01:50:34;18.90;95.80
7654;DHT22;3869;48.406;10.774;2023-06-19T01:53:02;18.90;95.70
7654;DHT22;3869;48.406;10.774;2023-06-19T01:55:31;18.90;95.80
7654;DHT22;3869;48.406;10.774;2023-06-19T01:57:59;18.90;95.80
7654;DHT22;3869;48.406;10.774;2023-06-19T02:00:27;18.90;96.00
7654;DHT22;3869;48.406;10.774;2023-06-19T02:02:55;18.90;95.90
7654;DHT22;3869;48.406;10.774;2023-06-19T02:05:23;18.90;95.90
7654;DHT22;3869;48.406;10.774;2023-06-19T02:07:51;18.90;95.90
7654;DHT22;3869;48.406;10.774;2023-06-19T02:10:19;18.90;96.00
7654;DHT22;3869;48.406;10.774;2023-06-19T02:12:49;19.00;96.10
7654;DHT22;3869;48.406;10.774;2023-06-19T02:15:17;18.90;96.10
7654;DHT22;3869;48.406;10.774;2023-06-19T02:17:45;18.90;96.00
7654;DHT22;3869;48.406;10.774;2023-06-19T02:20:14;18.90;96.00
7654;DHT22;3869;48.406;10.774;2023-06-19T02:22:42;18.90;96.00
7654;DHT22;3869;48.406;10.774;2023-06-19T02:25:10;18.80;96.00
7654;DHT22;3869;48.406;10.774;2023-06-19T02:27:38;18.90;96.10
7654;DHT22;3869;48.406;10.774;2023-06-19T02:30:08;18.90;96.00
7654;DHT22;3869;48.406;10.774;2023-06-19T02:32:36;18.90;96.10
7654;DHT22;3869;48.406;10.774;2023-06-19T02:35:07;18.90;96.20
7654;DHT22;3869;48.406;10.774;2023-06-19T02:37:36;18.90;96.00
7654;DHT22;3869;48.406;10.774;2023-06-19T02:40:04;18.90;96.00
7654;DHT22;3869;48.406;10.774;2023-06-19T02:42:33;18.90;96.00
7654;DHT22;3869;48.406;10.774;2023-06-19T02:45:01;18.80;95.90
7654;DHT22;3869;48.406;10.774;2023-06-19T02:47:32;18.70;96.10
7654;DHT22;3869;48.406;10.774;2023-06-19T02:50:01;18.60;96.00
7654;DHT22;3869;48.406;10.774;2023-06-19T02:52:30;18.70;96.20
7654;DHT22;3869;48.406;10.774;2023-06-19T02:54:58;18.70;96.20
7654;DHT22;3869;48.406;10.774;2023-06-19T02:57:26;18.70;96.30
7654;DHT22;3869;48.406;10.774;2023-06-19T02:59:54;18.70;96.20
7654;DHT22;3869;48.406;10.774;2023-06-19T03:02:22;18.70;96.30
7654;DHT22;3869;48.406;10.774;2023-06-19T03:04:52;18.70;96.30
7654;DHT22;3869;48.406;10.774;2023-06-19T03:07:20;18.70;96.30
7654;DHT22;3869;48.406;10.774;2023-06-19T03:09:48;18.70;96.30
7654;DHT22;3869;48.406;10.774;2023-06-19T03:12:16;18.60;96.30
7654;DHT22;3869;48.406;10.774;2023-06-19T03:14:44;18.60;96.50
7654;DHT22;3869;48.406;10.774;2023-06-19T03:17:12;18.60;96.60
7654;DHT22;3869;48.406;10.774;2023-06-19T03:19:41;18.60;96.80
7654;DHT22;3869;48.406;10.774;2023-06-19T03:22:10;18.70;96.90
7654;DHT22;3869;48.406;10.774;2023-06-19T03:24:38;18.70;97.00
7654;DHT22;3869;48.406;10.774;2023-06-19T03:27:06;18.70;97.00
7654;DHT22;3869;48.406;10.774;2023-06-19T03:29:34;18.70;97.00
7654;DHT22;3869;48.406;10.774;2023-06-19T03:32:03;18.70;97.00
7654;DHT22;3869;48.406;10.774;2023-06-19T03:34:31;18.70;96.90
7654;DHT22;3869;48.406;10.774;2023-06-19T03:36:59;18.60;96.90
7654;DHT22;3869;48.406;10.774;2023-06-19T03:39:28;18.70;97.00
7654;DHT22;3869;48.406;10.774;2023-06-19T03:41:56;18.70;97.10
7654;DHT22;3869;48.406;10.774;2023-06-19T03:44:24;18.70;97.40
7654;DHT22;3869;48.406;10.774;2023-06-19T03:46:52;18.70;97.20
7654;DHT22;3869;48.406;10.774;2023-06-19T03:49:20;18.70;97.10
7654;DHT22;3869;48.406;10.774;2023-06-19T03:51:48;18.70;96.70
7654;DHT22;3869;48.406;10.774;2023-06-19T03:54:16;18.70;96.30
7654;DHT22;3869;48.406;10.774;2023-06-19T03:56:45;18.70;95.80
7654;DHT22;3869;48.406;10.774;2023-06-19T03:59:13;18.80;95.80
7654;DHT22;3869;48.406;10.774;2023-06-19T04:01:41;18.90;95.80
7654;DHT22;3869;48.406;10.774;2023-06-19T04:04:09;18.90;95.50
7654;DHT22;3869;48.406;10.774;2023-06-19T04:06:37;19.00;95.40
7654;DHT22;3869;48.406;10.774;2023-06-19T04:09:05;19.10;95.10
7654;DHT22;3869;48.406;10.774;2023-06-19T04:11:33;19.10;95.30
7654;DHT22;3869;48.406;10.774;2023-06-19T04:14:03;19.20;94.90
7654;DHT22;3869;48.406;10.774;2023-06-19T04:16:30;19.20;95.10
7654;DHT22;3869;48.406;10.774;2023-06-19T04:18:59;19.30;94.70
7654;DHT22;3869;48.406;10.774;2023-06-19T04:21:27;19.40;94.70
7654;DHT22;3869;48.406;10.774;2023-06-19T04:23:55;19.40;94.80
7654;DHT22;3869;48.406;10.774;2023-06-19T04:26:23;19.50;94.90
7654;DHT22;3869;48.406;10.774;2023-06-19T04:28:51;19.50;94.90
7654;DHT22;3869;48.406;10.774;2023-06-19T04:31:20;19.60;95.10
7654;DHT22;3869;48.406;10.774;2023-06-19T04:33:48;19.60;95.20
7654;DHT22;3869;48.406;10.774;2023-06-19T04:36:16;19.70;95.20
7654;DHT22;3869;48.406;10.774;2023-06-19T04:38:45;19.70;95.10
7654;DHT22;3869;48.406;10.774;2023-06-19T04:41:13;19.70;95.10
7654;DHT22;3869;48.406;10.774;2023-06-19T04:43:41;19.70;95.20
7654;DHT22;3869;48.406;10.774;2023-06-19T04:46:09;19.70;95.20
7654;DHT22;3869;48.406;10.774;2023-06-19T04:48:38;19.70;95.20
7654;DHT22;3869;48.406;10.774;2023-06-19T04:51:07;19.70;95.40
7654;DHT22;3869;48.406;10.774;2023-06-19T04:53:35;19.80;95.30
7654;DHT22;3869;48.406;10.774;2023-06-19T04:56:04;19.80;95.30
7654;DHT22;3869;48.406;10.774;2023-06-19T04:58:32;19.80;95.40
7654;DHT22;3869;48.406;10.774;2023-06-19T05:01:00;19.90;95.80
7654;DHT22;3869;48.406;10.774;2023-06-19T05:03:28;19.90;96.00
7654;DHT22;3869;48.406;10.774;2023-06-19T05:05:57;19.90;96.00
7654;DHT22;3869;48.406;10.774;2023-06-19T05:08:25;20.00;95.90
7654;DHT22;3869;48.406;10.774;2023-06-19T05:10:53;20.00;95.90
7654;DHT22;3869;48.406;10.774;2023-06-19T05:13:21;20.00;95.90
7654;DHT22;3869;48.406;10.774;2023-06-19T05:15:49;20.10;96.00
7654;DHT22;3869;48.406;10.774;2023-06-19T05:18:19;20.20;95.90
7654;DHT22;3869;48.406;10.774;2023-06-19T05:20:47;20.20;95.70
7654;DHT22;3869;48.406;10.774;2023-06-19T05:23:16;20.30;95.70
7654;DHT22;3869;48.406;10.774;2023-06-19T05:25:44;20.40;95.60
7654;DHT22;3869;48.406;10.774;2023-06-19T05:28:12;20.40;95.80
7654;DHT22;3869;48.406;10.774;2023-06-19T05:30:40;20.50;95.70
7654;DHT22;3869;48.406;10.774;2023-06-19T05:33:08;20.60;95.70
7654;DHT22;3869;48.406;10.774;2023-06-19T05:35:36;20.60;95.50
7654;DHT22;3869;48.406;10.774;2023-06-19T05:38:04;20.70;95.60
7654;DHT22;3869;48.406;10.774;2023-06-19T05:40:33;20.70;95.80
7654;DHT22;3869;48.406;10.774;2023-06-19T05:43:01;20.80;95.80
7654;DHT22;3869;48.406;10.774;2023-06-19T05:45:29;20.80;96.00
7654;DHT22;3869;48.406;10.774;2023-06-19T05:47:57;20.90;96.10
7654;DHT22;3869;48.406;10.774;2023-06-19T05:50:25;21.00;95.70
7654;DHT22;3869;48.406;10.774;2023-06-19T05:52:53;21.10;95.70
7654;DHT22;3869;48.406;10.774;2023-06-19T05:55:21;21.10;95.70
7654;DHT22;3869;48.406;10.774;2023-06-19T05:57:53;21.20;95.70
7654;DHT22;3869;48.406;10.774;2023-06-19T06:00:21;21.20;95.60
7654;DHT22;3869;48.406;10.774;2023-06-19T06:02:49;21.30;95.70
7654;DHT22;3869;48.406;10.774;2023-06-19T06:05:18;21.30;95.70
7654;DHT22;3869;48.406;10.774;2023-06-19T06:07:47;21.30;95.70
7654;DHT22;3869;48.406;10.774;2023-06-19T06:10:15;21.40;95.70
7654;DHT22;3869;48.406;10.774;2023-06-19T06:12:43;21.40;95.70
7654;DHT22;3869;48.406;10.774;2023-06-19T06:15:13;21.50;95.80
7654;DHT22;3869;48.406;10.774;2023-06-19T06:17:41;21.60;95.80
7654;DHT22;3869;48.406;10.774;2023-06-19T06:20:09;21.60;96.00
7654;DHT22;3869;48.406;10.774;2023-06-19T06:22:39;21.60;96.00
7654;DHT22;3869;48.406;10.774;2023-06-19T06:25:08;21.60;96.10
7654;DHT22;3869;48.406;10.774;2023-06-19T06:27:39;21.60;96.10
7654;DHT22;3869;48.406;10.774;2023-06-19T06:30:09;21.70;96.20
7654;DHT22;3869;48.406;10.774;2023-06-19T06:32:39;21.70;96.30
7654;DHT22;3869;48.406;10.774;2023-06-19T06:35:08;21.70;96.30
7654;DHT22;3869;48.406;10.774;2023-06-19T06:37:36;21.70;96.50
7654;DHT22;3869;48.406;10.774;2023-06-19T06:40:05;21.70;96.50
7654;DHT22;3869;48.406;10.774;2023-06-19T06:42:36;21.70;96.60
7654;DHT22;3869;48.406;10.774;2023-06-19T06:45:05;21.80;96.70
7654;DHT22;3869;48.406;10.774;2023-06-19T06:47:34;21.80;96.70
7654;DHT22;3869;48.406;10.774;2023-06-19T06:50:04;21.80;96.60
7654;DHT22;3869;48.406;10.774;2023-06-19T06:52:32;21.80;96.70
7654;DHT22;3869;48.406;10.774;2023-06-19T06:55:00;21.90;96.90
7654;DHT22;3869;48.406;10.774;2023-06-19T06:57:28;21.90;97.00
7654;DHT22;3869;48.406;10.774;2023-06-19T06:59:56;22.00;96.90
7654;DHT22;3869;48.406;10.774;2023-06-19T07:02:25;22.00;96.90
7654;DHT22;3869;48.406;10.774;2023-06-19T07:04:53;22.10;96.90
7654;DHT22;3869;48.406;10.774;2023-06-19T07:07:22;22.20;97.00
7654;DHT22;3869;48.406;10.774;2023-06-19T07:09:50;22.30;97.10
7654;DHT22;3869;48.406;10.774;2023-06-19T07:12:18;22.30;96.80
7654;DHT22;3869;48.406;10.774;2023-06-19T07:14:46;22.30;96.60
7654;DHT22;3869;48.406;10.774;2023-06-19T07:17:14;22.40;96.20
7654;DHT22;3869;48.406;10.774;2023-06-19T07:19:46;22.40;96.00
7654;DHT22;3869;48.406;10.774;2023-06-19T07:22:14;22.40;96.00
7654;DHT22;3869;48.406;10.774;2023-06-19T07:24:44;22.50;96.10
7654;DHT22;3869;48.406;10.774;2023-06-19T07:27:12;22.50;96.00
7654;DHT22;3869;48.406;10.774;2023-06-19T07:29:40;22.50;96.10
7654;DHT22;3869;48.406;10.774;2023-06-19T07:32:08;22.50;95.90
7654;DHT22;3869;48.406;10.774;2023-06-19T07:34:37;22.50;95.70
7654;DHT22;3869;48.406;10.774;2023-06-19T07:37:05;22.50;95.60
7654;DHT22;3869;48.406;10.774;2023-06-19T07:39:33;22.60;95.80
7654;DHT22;3869;48.406;10.774;2023-06-19T07:42:03;22.60;95.60
7654;DHT22;3869;48.406;10.774;2023-06-19T07:44:31;22.60;95.30
7654;DHT22;3869;48.406;10.774;2023-06-19T07:46:59;22.60;95.30
7654;DHT22;3869;48.406;10.774;2023-06-19T07:49:27;22.60;95.50
7654;DHT22;3869;48.406;10.774;2023-06-19T07:51:55;22.60;95.40
7654;DHT22;3869;48.406;10.774;2023-06-19T07:54:23;22.60;95.30
7654;DHT22;3869;48.406;10.774;2023-06-19T07:56:51;22.50;95.00
7654;DHT22;3869;48.406;10.774;2023-06-19T07:59:21;22.50;95.00
7654;DHT22;3869;48.406;10.774;2023-06-19T08:01:50;22.50;95.00
7654;DHT22;3869;48.406;10.774;2023-06-19T08:04:18;22.60;95.30
7654;DHT22;3869;48.406;10.774;2023-06-19T08:06:46;22.60;95.60
7654;DHT22;3869;48.406;10.774;2023-06-19T08:09:14;22.60;95.90
7654;DHT22;3869;48.406;10.774;2023-06-19T08:11:42;22.60;95.80
7654;DHT22;3869;48.406;10.774;2023-06-19T08:14:10;22.60;95.90
7654;DHT22;3869;48.406;10.774;2023-06-19T08:16:39;22.70;95.80
7654;DHT22;3869;48.406;10.774;2023-06-19T08:19:07;22.80;95.60
7654;DHT22;3869;48.406;10.774;2023-06-19T08:21:35;22.90;95.70
7654;DHT22;3869;48.406;10.774;2023-06-19T08:24:04;23.00;95.70
7654;DHT22;3869;48.406;10.774;2023-06-19T08:26:32;23.00;95.40
7654;DHT22;3869;48.406;10.774;2023-06-19T08:29:00;23.20;95.40
7654;DHT22;3869;48.406;10.774;2023-06-19T08:31:28;23.30;95.40
7654;DHT22;3869;48.406;10.774;2023-06-19T08:33:57;23.50;95.40
7654;DHT22;3869;48.406;10.774;2023-06-19T08:36:25;23.60;95.20
7654;DHT22;3869;48.406;10.774;2023-06-19T08:38:53;23.80;95.10
7654;DHT22;3869;48.406;10.774;2023-06-19T08:41:21;23.80;95.20
7654;DHT22;3869;48.406;10.774;2023-06-19T08:43:50;23.90;95.30
7654;DHT22;3869;48.406;10.774;2023-06-19T08:46:18;23.90;95.00
7654;DHT22;3869;48.406;10.774;2023-06-19T08:48:46;23.90;94.60
7654;DHT22;3869;48.406;10.774;2023-06-19T08:51:16;24.00;94.80
7654;DHT22;3869;48.406;10.774;2023-06-19T08:53:46;24.00;94.90
7654;DHT22;3869;48.406;10.774;2023-06-19T08:56:14;24.20;95.20
7654;DHT22;3869;48.406;10.774;2023-06-19T08:58:42;24.20;95.00
7654;DHT22;3869;48.406;10.774;2023-06-19T09:01:10;24.20;94.70
7654;DHT22;3869;48.406;10.774;2023-06-19T09:03:40;24.30;95.00
7654;DHT22;3869;48.406;10.774;2023-06-19T09:06:11;24.40;94.90
7654;DHT22;3869;48.406;10.774;2023-06-19T09:08:40;24.30;94.50
7654;DHT22;3869;48.406;10.774;2023-06-19T09:11:08;24.40;94.80
7654;DHT22;3869;48.406;10.774;2023-06-19T09:13:36;24.40;94.80
7654;DHT22;3869;48.406;10.774;2023-06-19T09:16:06;24.40;94.80
7654;DHT22;3869;48.406;10.774;2023-06-19T09:18:43;24.40;95.10
7654;DHT22;3869;48.406;10.774;2023-06-19T09:21:15;24.50;94.70
7654;DHT22;3869;48.406;10.774;2023-06-19T09:23:46;24.50;94.80
7654;DHT22;3869;48.406;10.774;2023-06-19T09:26:15;24.60;94.90
7654;DHT22;3869;48.406;10.774;2023-06-19T09:28:44;24.60;94.30
7654;DHT22;3869;48.406;10.774;2023-06-19T09:31:13;24.70;94.40
7654;DHT22;3869;48.406;10.774;2023-06-19T09:33:41;24.80;94.30
7654;DHT22;3869;48.406;10.774;2023-06-19T09:36:10;24.80;94.30
7654;DHT22;3869;48.406;10.774;2023-06-19T09:38:38;24.90;94.10
7654;DHT22;3869;48.406;10.774;2023-06-19T09:41:08;24.90;94.30
7654;DHT22;3869;48.406;10.774;2023-06-19T09:43:38;25.00;94.30
7654;DHT22;3869;48.406;10.774;2023-06-19T09:46:07;25.00;94.40
7654;DHT22;3869;48.406;10.774;2023-06-19T09:48:40;25.00;94.30
7654;DHT22;3869;48.406;10.774;2023-06-19T09:51:12;25.10;94.30
7654;DHT22;3869;48.406;10.774;2023-06-19T09:53:45;25.10;94.40
7654;DHT22;3869;48.406;10.774;2023-06-19T09:56:15;25.20;94.10
7654;DHT22;3869;48.406;10.774;2023-06-19T09:58:51;25.20;94.10
7654;DHT22;3869;48.406;10.774;2023-06-19T10:01:20;25.30;93.80
7654;DHT22;3869;48.406;10.774;2023-06-19T10:03:48;25.30;93.90
7654;DHT22;3869;48.406;10.774;2023-06-19T10:06:17;25.30;94.50
7654;DHT22;3869;48.406;10.774;2023-06-19T10:08:46;25.40;94.40
7654;DHT22;3869;48.406;10.774;2023-06-19T10:11:16;25.60;94.40
7654;DHT22;3869;48.406;10.774;2023-06-19T10:13:44;25.70;94.00
7654;DHT22;3869;48.406;10.774;2023-06-19T10:16:22;25.80;93.80
7654;DHT22;3869;48.406;10.774;2023-06-19T10:18:54;25.90;93.30
7654;DHT22;3869;48.406;10.774;2023-06-19T10:21:22;26.10;92.90
7654;DHT22;3869;48.406;10.774;2023-06-19T10:23:54;26.20;92.80
7654;DHT22;3869;48.406;10.774;2023-06-19T10:26:31;26.30;92.70
7654;DHT22;3869;48.406;10.774;2023-06-19T10:29:00;26.40;92.70
7654;DHT22;3869;48.406;10.774;2023-06-19T10:31:28;26.50;92.40
7654;DHT22;3869;48.406;10.774;2023-06-19T10:33:56;26.60;92.10
7654;DHT22;3869;48.406;10.774;2023-06-19T10:36:24;26.60;91.90
7654;DHT22;3869;48.406;10.774;2023-06-19T10:38:53;26.70;91.80
7654;DHT22;3869;48.406;10.774;2023-06-19T10:41:23;26.80;91.60
7654;DHT22;3869;48.406;10.774;2023-06-19T10:43:58;26.90;91.40
7654;DHT22;3869;48.406;10.774;2023-06-19T10:46:30;26.90;91.00
7654;DHT22;3869;48.406;10.774;2023-06-19T10:48:59;27.10;91.00
7654;DHT22;3869;48.406;10.774;2023-06-19T10:51:28;27.10;90.20
7654;DHT22;3869;48.406;10.774;2023-06-19T10:53:57;27.20;90.30
7654;DHT22;3869;48.406;10.774;2023-06-19T10:56:25;27.30;89.60
7654;DHT22;3869;48.406;10.774;2023-06-19T10:58:59;27.30;90.00
7654;DHT22;3869;48.406;10.774;2023-06-19T11:01:34;27.50;90.10
7654;DHT22;3869;48.406;10.774;2023-06-19T11:04:04;27.50;89.80
7654;DHT22;3869;48.406;10.774;2023-06-19T11:06:33;27.60;88.50
7654;DHT22;3869;48.406;10.774;2023-06-19T11:09:02;27.50;87.90
7654;DHT22;3869;48.406;10.774;2023-06-19T11:11:39;27.50;89.20
7654;DHT22;3869;48.406;10.774;2023-06-19T11:14:09;27.60;89.50
7654;DHT22;3869;48.406;10.774;2023-06-19T11:16:41;27.60;89.20
7654;DHT22;3869;48.406;10.774;2023-06-19T11:19:14;27.70;88.40
7654;DHT22;3869;48.406;10.774;2023-06-19T11:21:46;27.70;88.40
7654;DHT22;3869;48.406;10.774;2023-06-19T11:24:16;27.80;88.20
7654;DHT22;3869;48.406;10.774;2023-06-19T11:26:45;27.90;87.70
7654;DHT22;3869;48.406;10.774;2023-06-19T11:29:20;27.80;86.50
7654;DHT22;3869;48.406;10.774;2023-06-19T11:31:49;27.90;86.60
7654;DHT22;3869;48.406;10.774;2023-06-19T11:34:18;27.90;85.70
7654;DHT22;3869;48.406;10.774;2023-06-19T11:36:50;27.90;85.70
7654;DHT22;3869;48.406;10.774;2023-06-19T11:39:18;27.90;86.50
7654;DHT22;3869;48.406;10.774;2023-06-19T11:41:46;28.00;88.20
7654;DHT22;3869;48.406;10.774;2023-06-19T11:44:15;28.20;87.40
7654;DHT22;3869;48.406;10.774;2023-06-19T11:46:44;28.20;86.60
7654;DHT22;3869;48.406;10.774;2023-06-19T11:49:15;28.30;86.00
7654;DHT22;3869;48.406;10.774;2023-06-19T11:51:45;28.40;85.00
7654;DHT22;3869;48.406;10.774;2023-06-19T11:54:14;28.50;84.80
7654;DHT22;3869;48.406;10.774;2023-06-19T11:56:42;28.50;84.90
7654;DHT22;3869;48.406;10.774;2023-06-19T11:59:10;28.60;84.10
7654;DHT22;3869;48.406;10.774;2023-06-19T12:01:38;28.60;83.90
7654;DHT22;3869;48.406;10.774;2023-06-19T12:04:07;28.60;84.30
7654;DHT22;3869;48.406;10.774;2023-06-19T12:06:36;28.60;83.80
7654;DHT22;3869;48.406;10.774;2023-06-19T12:09:04;28.80;85.90
7654;DHT22;3869;48.406;10.774;2023-06-19T12:11:32;28.80;84.90
7654;DHT22;3869;48.406;10.774;2023-06-19T12:14:01;28.80;82.70
7654;DHT22;3869;48.406;10.774;2023-06-19T12:16:29;28.90;81.40
7654;DHT22;3869;48.406;10.774;2023-06-19T12:18:57;28.90;81.10
7654;DHT22;3869;48.406;10.774;2023-06-19T12:21:26;28.90;80.90
7654;DHT22;3869;48.406;10.774;2023-06-19T12:24:04;29.00;80.20
7654;DHT22;3869;48.406;10.774;2023-06-19T12:26:34;29.00;79.80
7654;DHT22;3869;48.406;10.774;2023-06-19T12:29:04;29.00;81.00
7654;DHT22;3869;48.406;10.774;2023-06-19T12:31:32;29.10;80.80
7654;DHT22;3869;48.406;10.774;2023-06-19T12:34:01;29.20;78.90
7654;DHT22;3869;48.406;10.774;2023-06-19T12:36:50;29.20;78.70
7654;DHT22;3869;48.406;10.774;2023-06-19T12:39:18;29.30;79.40
7654;DHT22;3869;48.406;10.774;2023-06-19T12:41:46;29.40;80.10
7654;DHT22;3869;48.406;10.774;2023-06-19T12:44:14;29.50;79.70
7654;DHT22;3869;48.406;10.774;2023-06-19T12:46:43;29.50;79.60
7654;DHT22;3869;48.406;10.774;2023-06-19T12:49:11;29.60;79.10
7654;DHT22;3869;48.406;10.774;2023-06-19T12:51:39;29.70;79.30
7654;DHT22;3869;48.406;10.774;2023-06-19T12:54:09;29.70;79.60
7654;DHT22;3869;48.406;10.774;2023-06-19T12:56:37;29.90;78.60
7654;DHT22;3869;48.406;10.774;2023-06-19T12:59:05;29.90;77.20
7654;DHT22;3869;48.406;10.774;2023-06-19T13:01:33;29.90;76.90
7654;DHT22;3869;48.406;10.774;2023-06-19T13:04:01;30.00;78.90
7654;DHT22;3869;48.406;10.774;2023-06-19T13:06:29;30.10;78.70
7654;DHT22;3869;48.406;10.774;2023-06-19T13:08:57;30.10;75.80
7654;DHT22;3869;48.406;10.774;2023-06-19T13:11:27;30.00;75.30
7654;DHT22;3869;48.406;10.774;2023-06-19T13:13:55;29.90;76.20
7654;DHT22;3869;48.406;10.774;2023-06-19T13:16:23;29.90;76.20
7654;DHT22;3869;48.406;10.774;2023-06-19T13:19:10;29.90;76.00
7654;DHT22;3869;48.406;10.774;2023-06-19T13:21:40;29.80;78.00
7654;DHT22;3869;48.406;10.774;2023-06-19T13:24:08;29.90;78.20
7654;DHT22;3869;48.406;10.774;2023-06-19T13:26:37;29.90;78.30
7654;DHT22;3869;48.406;10.774;2023-06-19T13:29:06;29.90;78.40
7654;DHT22;3869;48.406;10.774;2023-06-19T13:31:34;29.90;78.00
7654;DHT22;3869;48.406;10.774;2023-06-19T13:34:02;30.00;77.50
7654;DHT22;3869;48.406;10.774;2023-06-19T13:36:30;30.00;77.80
7654;DHT22;3869;48.406;10.774;2023-06-19T13:38:59;30.00;76.80
7654;DHT22;3869;48.406;10.774;2023-06-19T13:41:27;29.90;77.40
7654;DHT22;3869;48.406;10.774;2023-06-19T13:43:59;29.90;76.70
7654;DHT22;3869;48.406;10.774;2023-06-19T13:46:27;29.80;77.10
7654;DHT22;3869;48.406;10.774;2023-06-19T13:48:56;29.70;77.30
7654;DHT22;3869;48.406;10.774;2023-06-19T13:51:24;29.70;76.10
7654;DHT22;3869;48.406;10.774;2023-06-19T13:53:52;29.70;78.60
7654;DHT22;3869;48.406;10.774;2023-06-19T13:56:21;29.70;78.00
7654;DHT22;3869;48.406;10.774;2023-06-19T13:58:50;29.70;76.80
7654;DHT22;3869;48.406;10.774;2023-06-19T14:01:19;29.80;74.90
7654;DHT22;3869;48.406;10.774;2023-06-19T14:03:47;29.70;74.20
7654;DHT22;3869;48.406;10.774;2023-06-19T14:06:16;29.80;75.70
7654;DHT22;3869;48.406;10.774;2023-06-19T14:08:44;29.90;76.30
7654;DHT22;3869;48.406;10.774;2023-06-19T14:11:12;30.00;74.90
7654;DHT22;3869;48.406;10.774;2023-06-19T14:13:40;30.00;75.00
7654;DHT22;3869;48.406;10.774;2023-06-19T14:16:09;30.10;74.50
7654;DHT22;3869;48.406;10.774;2023-06-19T14:18:38;30.10;75.40
7654;DHT22;3869;48.406;10.774;2023-06-19T14:21:06;30.20;74.40
7654;DHT22;3869;48.406;10.774;2023-06-19T14:23:34;30.20;74.90
7654;DHT22;3869;48.406;10.774;2023-06-19T14:26:07;30.30;75.60
7654;DHT22;3869;48.406;10.774;2023-06-19T14:28:36;30.30;74.40
7654;DHT22;3869;48.406;10.774;2023-06-19T14:31:05;30.40;74.10
7654;DHT22;3869;48.406;10.774;2023-06-19T14:33:33;30.40;73.60
7654;DHT22;3869;48.406;10.774;2023-06-19T14:36:04;30.40;74.80
7654;DHT22;3869;48.406;10.774;2023-06-19T14:38:32;30.40;73.30
7654;DHT22;3869;48.406;10.774;2023-06-19T14:41:01;30.30;71.90
7654;DHT22;3869;48.406;10.774;2023-06-19T14:43:29;30.20;72.20
7654;DHT22;3869;48.406;10.774;2023-06-19T14:46:00;30.20;72.20
7654;DHT22;3869;48.406;10.774;2023-06-19T14:48:28;30.20;72.70
7654;DHT22;3869;48.406;10.774;2023-06-19T14:50:57;30.20;72.70
7654;DHT22;3869;48.406;10.774;2023-06-19T14:53:26;30.20;71.60
7654;DHT22;3869;48.406;10.774;2023-06-19T14:55:54;30.20;71.40
7654;DHT22;3869;48.406;10.774;2023-06-19T14:58:22;30.20;72.00
7654;DHT22;3869;48.406;10.774;2023-06-19T15:00:53;30.20;71.70
7654;DHT22;3869;48.406;10.774;2023-06-19T15:03:21;30.10;70.40
7654;DHT22;3869;48.406;10.774;2023-06-19T15:05:49;30.10;70.30
7654;DHT22;3869;48.406;10.774;2023-06-19T15:08:17;30.10;70.00
7654;DHT22;3869;48.406;10.774;2023-06-19T15:10:50;30.10;70.00
7654;DHT22;3869;48.406;10.774;2023-06-19T15:13:18;30.00;70.80
7654;DHT22;3869;48.406;10.774;2023-06-19T15:15:46;30.00;71.70
7654;DHT22;3869;48.406;10.774;2023-06-19T15:18:14;30.00;72.10
7654;DHT22;3869;48.406;10.774;2023-06-19T15:20:42;30.00;72.00
7654;DHT22;3869;48.406;10.774;2023-06-19T15:23:10;29.90;72.30
7654;DHT22;3869;48.406;10.774;2023-06-19T15:25:38;29.90;72.80
7654;DHT22;3869;48.406;10.774;2023-06-19T15:28:08;29.90;72.90
7654;DHT22;3869;48.406;10.774;2023-06-19T15:30:36;29.90;72.40
7654;DHT22;3869;48.406;10.774;2023-06-19T15:33:04;29.80;72.50
7654;DHT22;3869;48.406;10.774;2023-06-19T15:35:32;29.80;72.20
7654;DHT22;3869;48.406;10.774;2023-06-19T15:38:00;29.70;73.00
7654;DHT22;3869;48.406;10.774;2023-06-19T15:40:29;29.60;73.10
7654;DHT22;3869;48.406;10.774;2023-06-19T15:42:57;29.60;73.60
7654;DHT22;3869;48.406;10.774;2023-06-19T15:45:26;29.50;73.20
7654;DHT22;3869;48.406;10.774;2023-06-19T15:47:54;29.50;73.50
7654;DHT22;3869;48.406;10.774;2023-06-19T15:50:22;29.40;74.00
7654;DHT22;3869;48.406;10.774;2023-06-19T15:52:51;29.40;73.40
7654;DHT22;3869;48.406;10.774;2023-06-19T15:55:19;29.40;74.00